Time;durP1;ratioP1;P1;durP2;ratioP2;P2;SDS_P1;SDS_P2;PMS_P1;PMS_P2;Temp;Humidity;BMP_temperature;BMP_pressure;BME280_temperature;BME280_humidity;BME280_pressure;Samples;Min_cycle;Max_cycle;Signal;HPM_P1;HPM_P2
2023/04/07 00:01:32;;;;;;;;;;;;;;;;;;;;;
2023/04/07 00:04:17;;;;;;;81.63;48.87;;;7.70;99.90;;;;;;4860254;29;20845;-95
2023/04/07 00:07:01;;;;;;;78.67;48.13;;;7.50;99.90;;;;;;4832826;29;20434;-93
2023/04/07 00:09:27;;;;;;;84.07;48.57;;;7.60;99.90;;;;;;4850263;29;20452;-93
2023/04/07 00:11:55;;;;;;;85.70;49.70;;;7.50;99.90;;;;;;4836470;29;20451;-95
2023/04/07 00:15:10;;;;;;;80.10;48.60;;;7.60;99.90;;;;;;4834060;29;20832;-94
2023/04/07 00:17:59;;;;;;;87.72;50.50;;;7.50;99.90;;;;;;4831243;29;20419;-95
2023/04/07 00:20:34;;;;;;;80.32;48.55;;;7.80;99.90;;;;;;4911198;29;20735;-94
2023/04/07 00:23:31;;;;;;;;;;;;;;;;;;;;;
2023/04/07 00:25:59;;;;;;;87.38;49.67;;;7.50;99.90;;;;;;4921652;29;20936;-94
2023/04/07 00:28:36;;;;;;;80.95;49.50;;;7.50;99.90;;;;;;4913741;29;20429;-96
2023/04/07 00:31:14;;;;;;;88.68;49.90;;;7.40;99.90;;;;;;4912740;29;20476;-96
2023/04/07 00:33:49;;;;;;;86.68;50.30;;;7.50;99.90;;;;;;4915325;29;20457;-94
2023/04/07 00:37:06;;;;;;;;;;;;;;;;;;;;;
2023/04/07 00:47:15;;;;;;;87.80;52.05;;;7.50;99.90;;;;;;4782378;29;20434;-95
2023/04/07 00:50:15;;;;;;;95.03;53.70;;;7.50;99.90;;;;;;4806032;29;20495;-94
2023/04/07 02:18:47;;;;;;;115.35;56.97;;;7.70;99.90;;;;;;5173767;23;20423;-94
2023/04/07 02:50:54;;;;;;;109.38;54.70;;;7.60;99.90;;;;;;5609142;23;20481;-93
2023/04/07 03:24:25;;;;;;;95.55;47.63;;;7.70;99.90;;;;;;4828347;29;20550;-95
2023/04/07 03:48:00;;;;;;;;;;;;;;;;;;;;;
2023/04/07 04:27:08;;;;;;;64.80;34.55;;;7.80;99.90;;;;;;5229199;23;20459;-95
2023/04/07 04:33:26;;;;;;;;;;;;;;;;;;;;;
2023/04/07 04:36:18;;;;;;;47.33;28.95;;;7.80;99.90;;;;;;5038893;23;20537;-94
2023/04/07 06:13:56;;;;;;;39.92;32.17;;;7.80;99.90;;;;;;5400381;23;20460;-95
2023/04/07 08:35:39;;;;;;;26.52;23.92;;;9.80;99.90;;;;;;5053397;23;20943;-95
2023/04/07 08:38:22;;;;;;;23.50;21.20;;;9.90;99.90;;;;;;4891521;24;20441;-94
2023/04/07 08:41:49;;;;;;;;;;;;;;;;;;;;;
2023/04/07 08:44:37;;;;;;;23.35;21.05;;;10.10;99.90;;;;;;5245756;23;20495;-95
2023/04/07 08:47:10;;;;;;;23.23;20.92;;;10.10;99.90;;;;;;4870089;29;20426;-92
2023/04/07 08:49:42;;;;;;;22.70;20.60;;;10.30;99.90;;;;;;4876182;29;20478;-92
2023/04/07 09:26:10;;;;;;;16.65;15.05;;;10.40;99.90;;;;;;4888907;29;20448;-95
2023/04/07 09:29:48;;;;;;;;;;;;;;;;;;;;;
2023/04/07 09:33:22;;;;;;;14.90;13.45;;;10.60;99.90;;;;;;4779278;30;20486;-92
2023/04/07 09:35:53;;;;;;;12.52;11.35;;;10.30;99.90;;;;;;4814375;29;20992;-94
2023/04/07 09:41:40;;;;;;;11.60;10.50;;;10.50;99.90;;;;;;4829695;29;20439;-94
2023/04/07 09:47:29;;;;;;;12.98;11.77;;;10.60;99.90;;;;;;4865369;29;20927;-93
2023/04/07 09:50:37;;;;;;;11.50;10.50;;;11.00;99.90;;;;;;4856985;29;20456;-94
2023/04/07 09:53:03;;;;;;;12.20;11.10;;;11.00;99.90;;;;;;4778119;29;20444;-94
2023/04/07 09:55:33;;;;;;;12.77;11.57;;;11.10;99.90;;;;;;4957730;24;20425;-94
2023/04/07 09:58:15;;;;;;;12.00;10.90;;;11.20;99.90;;;;;;4861586;29;20424;-94
2023/04/07 10:00:44;;;;;;;11.10;10.10;;;11.50;99.90;;;;;;4863728;29;20769;-94
2023/04/07 10:03:14;;;;;;;10.80;9.80;;;11.50;99.90;;;;;;4873524;29;20419;-93
2023/04/07 10:05:58;;;;;;;10.55;9.65;;;11.40;99.90;;;;;;4869856;29;20466;-94
2023/04/07 10:11:45;;;;;;;9.25;8.45;;;11.30;99.90;;;;;;4892565;29;20423;-92
2023/04/07 10:14:17;;;;;;;9.57;8.68;;;11.30;99.90;;;;;;4870578;29;20424;-93
2023/04/07 10:21:01;;;;;;;9.07;8.25;;;11.10;99.90;;;;;;4814840;29;20503;-93
2023/04/07 10:23:54;;;;;;;9.10;8.30;;;11.00;99.90;;;;;;4799203;29;20500;-93
2023/04/07 10:26:25;;;;;;;9.10;8.20;;;11.00;99.90;;;;;;4791329;29;20546;-94
2023/04/07 10:29:18;;;;;;;9.20;8.40;;;11.40;99.90;;;;;;4801834;29;21255;-94
2023/04/07 10:32:04;;;;;;;8.43;7.63;;;11.20;99.90;;;;;;4819795;29;20436;-94
2023/04/07 10:34:49;;;;;;;7.40;6.70;;;11.40;99.90;;;;;;4803050;29;20550;-94
2023/04/07 10:37:20;;;;;;;7.68;6.90;;;11.70;99.90;;;;;;4798515;29;20832;-95
2023/04/07 10:40:51;;;;;;;7.25;6.55;;;11.80;99.90;;;;;;4834200;29;20464;-95
2023/04/07 10:51:26;;;;;;;8.13;7.43;;;12.00;99.90;;;;;;4760308;30;20968;-94
2023/04/07 10:54:37;;;;;;;8.77;7.97;;;12.10;99.90;;;;;;4725991;30;20551;-94
2023/04/07 10:58:06;;;;;;;8.50;7.80;;;12.10;99.90;;;;;;4718875;30;20521;-95
2023/04/07 11:00:37;;;;;;;8.27;7.57;;;12.00;99.90;;;;;;4718963;30;20447;-94
2023/04/07 11:03:18;;;;;;;8.00;7.30;;;12.00;99.90;;;;;;4706428;30;20459;-94
2023/04/07 11:06:01;;;;;;;9.10;8.30;;;11.90;99.90;;;;;;4707612;30;20460;-94
2023/04/07 11:09:30;;;;;;;;;;;;;;;;;;;;;
2023/04/07 11:12:27;;;;;;;8.75;7.95;;;11.70;99.90;;;;;;4734965;30;20539;-94
2023/04/07 11:24:37;;;;;;;8.23;7.50;;;12.20;99.90;;;;;;4717700;30;20493;-95
2023/04/07 11:28:00;;;;;;;7.60;6.90;;;12.20;99.90;;;;;;4729793;30;20448;-93
2023/04/07 11:30:44;;;;;;;8.13;7.33;;;12.20;99.90;;;;;;4693244;30;20450;-93
2023/04/07 11:34:11;;;;;;;9.43;8.63;;;12.00;99.90;;;;;;4731132;30;20515;-94
2023/04/07 11:37:04;;;;;;;9.55;8.75;;;11.90;99.90;;;;;;4664243;30;20529;-95
2023/04/07 11:40:30;;;;;;;9.30;8.40;;;11.90;99.90;;;;;;4818320;29;20461;-94
2023/04/07 11:43:41;;;;;;;9.27;8.48;;;12.10;99.90;;;;;;4840706;29;20434;-94
2023/04/07 11:46:23;;;;;;;8.18;7.47;;;12.10;99.90;;;;;;4831807;29;20940;-94
2023/04/07 11:53:24;;;;;;;8.37;7.67;;;12.40;99.90;;;;;;4791565;30;20455;-93
2023/04/07 11:56:17;;;;;;;8.43;7.72;;;12.40;99.90;;;;;;4717286;30;20450;-93
2023/04/07 11:59:21;;;;;;;8.65;7.85;;;12.50;99.90;;;;;;4748312;30;20556;-96
2023/04/07 12:02:02;;;;;;;8.60;7.80;;;12.50;99.90;;;;;;4696064;30;20439;-94
2023/04/07 12:05:15;;;;;;;9.20;8.40;;;12.50;99.90;;;;;;4713106;30;20498;-94
2023/04/07 12:08:34;;;;;;;9.82;8.93;;;12.40;99.90;;;;;;4698486;30;20463;-94
2023/04/07 12:11:06;;;;;;;9.10;8.30;;;12.50;99.90;;;;;;4734686;30;20448;-95
2023/04/07 12:13:50;;;;;;;10.63;9.63;;;12.70;99.90;;;;;;4809646;29;20492;-95
2023/04/07 12:20:05;;;;;;;9.45;8.65;;;12.90;99.90;;;;;;4854845;29;20434;-93
2023/04/07 12:23:21;;;;;;;9.77;8.90;;;13.40;99.90;;;;;;5068688;24;20431;-96
2023/04/07 12:25:58;;;;;;;10.65;9.65;;;13.70;99.90;;;;;;4850299;29;20438;-94
2023/04/07 12:28:38;;;;;;;9.30;8.40;;;13.80;99.90;;;;;;4867575;29;20467;-96
2023/04/07 12:31:04;;;;;;;9.70;8.88;;;14.00;99.90;;;;;;4872376;29;20626;-93
2023/04/07 12:36:42;;;;;;;9.87;8.97;;;13.60;99.90;;;;;;4850820;29;20508;-93
2023/04/07 12:39:26;;;;;;;9.67;8.87;;;13.50;99.90;;;;;;4834086;29;20487;-96
2023/04/07 12:46:19;;;;;;;9.85;8.95;;;13.20;99.90;;;;;;4948089;23;20453;-95
2023/04/07 12:49:23;;;;;;;11.50;10.38;;;13.30;99.90;;;;;;4870037;29;20432;-95
2023/04/07 13:03:39;;;;;;;10.70;9.80;;;13.70;99.20;;;;;;745104;23;20689;-95
2023/04/07 13:06:52;;;;;;;9.15;8.27;;;13.80;98.40;;;;;;4872621;29;20436;-94
2023/04/07 13:10:10;;;;;;;8.63;7.93;;;13.80;99.10;;;;;;4857047;29;20448;-94
2023/04/07 13:12:57;;;;;;;8.52;7.82;;;13.90;98.80;;;;;;4873071;29;20428;-94
2023/04/07 13:18:37;;;;;;;9.75;8.75;;;14.10;97.50;;;;;;4869419;29;20432;-94
2023/04/07 13:26:14;;;;;;;8.68;7.88;;;14.20;94.60;;;;;;4924038;27;20453;-94
2023/04/07 13:29:20;;;;;;;7.68;6.97;;;14.60;97.30;;;;;;4894550;29;20460;-95
2023/04/07 13:32:17;;;;;;;;;;;;;;;;;;;;;
2023/04/07 13:35:01;;;;;;;7.22;6.45;;;15.80;83.10;;;;;;4866183;29;21040;-95
2023/04/07 13:37:27;;;;;;;7.50;6.47;;;15.70;80.70;;;;;;4859720;29;20429;-94
2023/04/07 13:39:54;;;;;;;7.03;6.40;;;16.10;78.20;;;;;;4857086;29;20538;-95
2023/04/07 13:42:29;;;;;;;7.35;6.47;;;16.00;72.30;;;;;;4854972;29;20500;-93
2023/04/07 13:44:54;;;;;;;9.27;7.90;;;16.00;71.00;;;;;;4856438;29;20436;-96
2023/04/07 13:47:55;;;;;;;7.97;7.37;;;16.10;72.00;;;;;;4854204;29;20530;-95
2023/04/07 13:50:42;;;;;;;6.60;6.10;;;16.50;73.50;;;;;;4860158;29;20839;-95
2023/04/07 13:53:14;;;;;;;7.20;6.50;;;16.10;70.70;;;;;;4857582;29;20465;-94
2023/04/07 13:56:26;;;;;;;6.63;6.13;;;16.10;71.80;;;;;;4856960;29;20432;-95
2023/04/07 13:59:19;;;;;;;6.00;5.50;;;16.00;70.90;;;;;;4858790;29;20516;-96
2023/04/07 14:01:50;;;;;;;5.68;5.20;;;16.00;67.80;;;;;;4858383;29;20413;-95
2023/04/07 14:08:06;;;;;;;5.97;5.30;;;15.80;70.70;;;;;;4899468;29;20452;-94
2023/04/07 14:11:04;;;;;;;5.28;4.78;;;15.60;70.20;;;;;;4898237;29;20465;-94
2023/04/07 14:14:15;;;;;;;4.60;4.20;;;15.40;66.70;;;;;;4878359;29;20409;-95
2023/04/07 14:16:56;;;;;;;;;;;;;;;;;;;;;
2023/04/07 14:19:34;;;;;;;5.32;4.93;;;14.90;68.50;;;;;;4909209;29;20421;-95
2023/04/07 14:22:28;;;;;;;5.30;4.80;;;14.80;71.30;;;;;;4869138;29;20513;-94
2023/04/07 14:25:26;;;;;;;4.75;4.35;;;14.80;72.10;;;;;;4868268;29;20428;-94
2023/04/07 14:30:17;;;;;;;5.50;5.00;;;14.80;76.50;;;;;;5100590;23;20983;-94
2023/04/07 14:33:09;;;;;;;5.10;4.60;;;14.80;77.80;;;;;;4879188;29;20425;-93
2023/04/07 14:35:43;;;;;;;5.22;4.78;;;14.60;76.10;;;;;;4889581;29;20437;-93
2023/04/07 14:38:12;;;;;;;5.35;4.95;;;14.80;80.30;;;;;;4874934;29;20532;-94
2023/04/07 14:41:02;;;;;;;5.25;4.82;;;15.10;81.20;;;;;;4881557;29;20454;-94
2023/04/07 14:43:43;;;;;;;5.20;4.80;;;14.90;80.20;;;;;;4869838;29;20501;-93
2023/04/07 14:47:11;;;;;;;4.97;4.57;;;14.90;76.70;;;;;;4868220;29;20410;-94
2023/04/07 14:50:08;;;;;;;5.60;5.10;;;14.60;76.40;;;;;;4811124;29;20440;-95
2023/04/07 14:52:49;;;;;;;5.18;4.78;;;14.60;81.20;;;;;;4825557;29;20432;-93
2023/04/07 14:55:29;;;;;;;5.28;4.88;;;14.40;82.20;;;;;;4837214;29;20435;-94
2023/04/07 14:58:17;;;;;;;5.07;4.68;;;14.30;80.30;;;;;;4866268;29;20509;-95
2023/04/07 15:00:52;;;;;;;5.60;5.10;;;14.50;86.10;;;;;;4862868;29;20510;-95
2023/04/07 15:03:20;;;;;;;5.35;4.95;;;14.40;83.40;;;;;;4845493;29;22110;-94
2023/04/07 15:06:36;;;;;;;5.60;5.10;;;14.40;79.00;;;;;;4861134;29;20444;-95
2023/04/07 15:09:28;;;;;;;5.90;5.40;;;14.40;81.60;;;;;;4867563;29;20791;-94
2023/04/07 15:11:55;;;;;;;6.05;5.55;;;14.10;87.10;;;;;;4861409;29;20439;-92
2023/04/07 15:14:25;;;;;;;5.72;5.22;;;14.20;90.00;;;;;;4859291;29;20484;-94
2023/04/07 15:16:53;;;;;;;6.57;5.97;;;14.30;91.40;;;;;;4858018;29;20434;-95
2023/04/07 15:19:19;;;;;;;6.05;5.53;;;14.20;90.20;;;;;;4858303;29;20415;-94
2023/04/07 15:21:45;;;;;;;6.93;6.33;;;14.00;90.00;;;;;;4860670;29;20427;-95
2023/04/07 15:24:10;;;;;;;6.85;6.25;;;14.00;89.20;;;;;;4860836;29;20514;-95
2023/04/07 15:26:36;;;;;;;6.53;5.93;;;14.20;90.50;;;;;;4862863;29;20422;-94
2023/04/07 15:29:15;;;;;;;6.30;5.80;;;14.00;90.70;;;;;;4858442;29;20422;-94
2023/04/07 15:31:44;;;;;;;6.43;5.93;;;13.90;91.70;;;;;;4859540;29;20509;-95
2023/04/07 15:34:09;;;;;;;6.13;5.63;;;14.00;92.60;;;;;;4862810;29;20415;-93
2023/04/07 15:36:35;;;;;;;6.20;5.70;;;13.90;90.90;;;;;;4875046;29;21159;-94
2023/04/07 15:39:05;;;;;;;6.70;6.10;;;13.90;93.10;;;;;;4872730;29;20413;-93
2023/04/07 15:41:35;;;;;;;6.60;6.00;;;13.90;92.10;;;;;;4877625;29;21009;-93
2023/04/07 15:44:02;;;;;;;6.18;5.57;;;13.70;93.00;;;;;;4877560;29;20453;-93
2023/04/07 15:46:28;;;;;;;6.18;5.68;;;13.80;90.50;;;;;;4873782;29;20419;-94
2023/04/07 15:48:54;;;;;;;6.13;5.60;;;13.70;91.70;;;;;;4873481;29;20428;-94
2023/04/07 15:51:20;;;;;;;6.13;5.63;;;13.90;92.40;;;;;;4869259;29;20912;-93
2023/04/07 15:53:45;;;;;;;6.28;5.68;;;13.90;94.90;;;;;;4862589;29;20463;-93
2023/04/07 15:56:11;;;;;;;7.80;5.65;;;13.80;89.00;;;;;;4862438;29;20425;-92
2023/04/07 15:58:37;;;;;;;5.90;5.40;;;13.90;93.10;;;;;;4862086;29;20987;-93
2023/04/07 16:01:03;;;;;;;6.73;6.13;;;13.70;91.00;;;;;;4862744;29;20908;-93
2023/04/07 16:03:30;;;;;;;6.18;5.68;;;13.70;93.60;;;;;;4862121;29;20438;-95
2023/04/07 16:05:59;;;;;;;6.60;6.00;;;13.70;90.70;;;;;;4862752;29;20945;-93
2023/04/07 16:08:25;;;;;;;7.20;6.60;;;13.70;91.10;;;;;;4862007;29;20461;-94
2023/04/07 16:10:51;;;;;;;6.10;5.60;;;13.70;91.60;;;;;;4862935;29;20450;-91
2023/04/07 16:13:16;;;;;;;6.90;6.30;;;13.60;84.20;;;;;;4862169;29;20434;-92
2023/04/07 16:15:42;;;;;;;7.13;6.53;;;13.60;89.10;;;;;;4862584;29;20411;-93
2023/04/07 16:18:10;;;;;;;7.00;6.40;;;13.60;93.70;;;;;;4862035;29;20469;-93
2023/04/07 16:20:36;;;;;;;6.95;6.32;;;13.90;95.60;;;;;;4861242;29;20426;-92
2023/04/07 16:23:02;;;;;;;6.43;5.85;;;13.50;94.20;;;;;;4863181;29;20423;-93
2023/04/07 16:25:29;;;;;;;6.60;6.00;;;13.50;91.10;;;;;;4861677;29;20506;-93
2023/04/07 16:27:55;;;;;;;6.22;5.72;;;13.40;83.70;;;;;;4862500;29;20490;-93
2023/04/07 16:30:21;;;;;;;6.67;6.07;;;13.50;91.40;;;;;;4861226;29;20529;-92
2023/04/07 16:32:46;;;;;;;6.57;6.07;;;13.40;94.10;;;;;;4862256;29;20887;-92
2023/04/07 16:35:15;;;;;;;6.90;6.30;;;13.60;94.80;;;;;;4861221;29;20415;-94
2023/04/07 16:37:42;;;;;;;7.10;6.40;;;13.40;95.90;;;;;;4862336;29;20454;-92
2023/04/07 16:40:08;;;;;;;7.20;6.50;;;13.30;90.60;;;;;;4862671;29;20530;-94
2023/04/07 16:42:35;;;;;;;7.53;6.88;;;13.30;93.10;;;;;;4861065;29;20422;-96
2023/04/07 16:45:01;;;;;;;7.00;6.40;;;13.30;92.70;;;;;;4860868;29;20467;-94
2023/04/07 16:47:29;;;;;;;7.15;6.55;;;13.30;95.70;;;;;;4860835;29;20427;-93
2023/04/07 16:49:55;;;;;;;6.93;6.32;;;13.30;98.30;;;;;;4861931;29;20450;-94
2023/04/07 16:52:22;;;;;;;7.23;6.57;;;13.30;95.30;;;;;;4861219;29;20462;-93
2023/04/07 16:54:48;;;;;;;7.03;6.45;;;13.80;92.80;;;;;;4862018;29;20423;-94
2023/04/07 16:57:16;;;;;;;6.82;6.22;;;13.30;93.10;;;;;;4861195;29;20518;-93
2023/04/07 16:59:42;;;;;;;7.15;6.55;;;13.10;95.70;;;;;;4861025;29;20475;-94
2023/04/07 17:02:14;;;;;;;7.38;6.78;;;13.00;96.60;;;;;;4862636;29;20829;-92
2023/04/07 17:04:41;;;;;;;7.40;6.70;;;13.30;99.80;;;;;;4861266;29;21008;-92
2023/04/07 17:07:07;;;;;;;6.85;6.25;;;13.20;99.90;;;;;;4861827;29;20426;-93
2023/04/07 17:09:33;;;;;;;7.40;6.70;;;13.10;99.50;;;;;;4860687;29;20678;-94
2023/04/07 17:12:00;;;;;;;7.32;6.72;;;12.90;99.90;;;;;;4861627;29;20427;-94
2023/04/07 17:14:27;;;;;;;7.05;6.45;;;12.90;99.90;;;;;;4861361;29;20430;-94
2023/04/07 17:16:52;;;;;;;7.65;7.05;;;12.80;99.90;;;;;;4859767;29;20505;-93
2023/04/07 17:19:18;;;;;;;8.02;7.32;;;12.90;99.90;;;;;;4865420;29;21047;-93
2023/04/07 17:21:45;;;;;;;8.13;7.43;;;13.10;99.90;;;;;;4879514;29;20421;-93
2023/04/07 17:24:14;;;;;;;8.57;7.78;;;12.60;99.90;;;;;;4871468;29;20418;-95
2023/04/07 17:26:45;;;;;;;8.52;7.78;;;12.50;99.90;;;;;;4876284;29;20531;-93
2023/04/07 17:29:15;;;;;;;8.30;7.60;;;12.50;99.90;;;;;;4875179;29;20426;-92
2023/04/07 17:31:41;;;;;;;8.98;8.10;;;12.60;99.90;;;;;;4860452;29;20463;-95
2023/04/07 17:34:07;;;;;;;8.00;7.30;;;12.70;99.90;;;;;;4860236;29;20514;-93
2023/04/07 17:36:34;;;;;;;8.32;7.63;;;12.10;99.90;;;;;;4873620;29;20974;-94
2023/04/07 17:39:01;;;;;;;8.40;7.60;;;12.00;99.90;;;;;;4892627;29;20416;-93
2023/04/07 17:41:28;;;;;;;8.38;7.60;;;12.10;99.90;;;;;;4882752;29;21070;-94
2023/04/07 17:43:54;;;;;;;8.57;7.88;;;11.80;99.90;;;;;;4870975;29;20792;-94
2023/04/07 17:46:21;;;;;;;8.20;7.50;;;11.70;99.90;;;;;;4870189;29;20421;-93
2023/04/07 17:48:47;;;;;;;8.40;7.70;;;11.70;99.90;;;;;;4867494;29;20411;-94
2023/04/07 17:51:14;;;;;;;8.70;7.90;;;11.20;99.90;;;;;;4871689;29;20530;-94
2023/04/07 17:53:40;;;;;;;9.00;8.10;;;11.40;99.90;;;;;;4859962;29;20586;-93
2023/04/07 17:56:05;;;;;;;9.37;8.47;;;11.20;99.90;;;;;;4859570;29;20430;-93
2023/04/07 17:58:31;;;;;;;8.88;8.07;;;11.20;99.90;;;;;;4860051;29;20435;-94
2023/04/07 18:00:58;;;;;;;8.38;7.68;;;11.00;99.90;;;;;;4858979;29;20503;-93
2023/04/07 18:03:24;;;;;;;8.70;7.90;;;10.80;99.90;;;;;;4860671;29;20423;-96
2023/04/07 18:05:49;;;;;;;9.10;8.30;;;10.70;99.90;;;;;;4859819;29;20434;-93
2023/04/07 18:08:15;;;;;;;9.10;8.30;;;10.60;99.90;;;;;;4860433;29;20480;-95
2023/04/07 18:10:41;;;;;;;9.43;8.60;;;10.60;99.90;;;;;;4859128;29;20454;-93
2023/04/07 18:13:07;;;;;;;10.38;9.40;;;10.70;99.90;;;;;;4859861;29;20419;-94
2023/04/07 18:15:33;;;;;;;10.25;9.35;;;10.40;99.90;;;;;;4859385;29;20861;-93
2023/04/07 18:17:59;;;;;;;10.27;9.38;;;10.50;99.90;;;;;;4858387;29;20888;-93
2023/04/07 18:20:25;;;;;;;10.57;9.27;;;10.60;99.90;;;;;;4859792;29;20513;-95
2023/04/07 18:22:51;;;;;;;10.40;9.48;;;10.50;99.90;;;;;;4858451;29;20458;-94
2023/04/07 18:25:17;;;;;;;10.50;9.60;;;10.50;99.90;;;;;;4859561;29;20434;-94
2023/04/07 18:27:42;;;;;;;10.43;9.52;;;10.40;99.90;;;;;;4858981;29;20414;-92
2023/04/07 18:30:11;;;;;;;11.10;10.00;;;10.50;99.90;;;;;;4860260;29;20442;-94
2023/04/07 18:32:37;;;;;;;11.00;9.90;;;10.20;99.90;;;;;;4859342;29;20427;-93
2023/04/07 18:35:04;;;;;;;11.13;10.13;;;10.10;99.90;;;;;;4875147;29;20430;-93
2023/04/07 18:37:29;;;;;;;11.55;10.45;;;10.00;99.90;;;;;;4860169;29;20426;-94
2023/04/07 18:39:55;;;;;;;10.50;9.50;;;9.90;99.90;;;;;;4874613;29;20415;-93
2023/04/07 18:42:21;;;;;;;11.27;10.25;;;9.60;99.90;;;;;;4860191;29;20418;-94
2023/04/07 18:44:47;;;;;;;10.38;9.48;;;9.80;99.90;;;;;;4874936;29;20506;-93
2023/04/07 18:47:13;;;;;;;10.68;9.68;;;9.30;99.90;;;;;;4860454;29;20423;-93
2023/04/07 18:49:38;;;;;;;12.13;11.02;;;9.30;99.90;;;;;;4860149;29;20447;-93
2023/04/07 18:52:05;;;;;;;12.57;11.30;;;9.20;99.90;;;;;;4875756;29;20437;-94
2023/04/07 18:54:31;;;;;;;13.10;11.90;;;9.30;99.90;;;;;;4861600;29;20423;-93
2023/04/07 18:56:57;;;;;;;13.57;12.27;;;9.10;99.90;;;;;;4877213;29;20427;-95
2023/04/07 18:59:32;;;;;;;13.57;12.38;;;8.90;99.90;;;;;;4875973;29;20427;-95
2023/04/07 19:01:58;;;;;;;13.63;12.32;;;8.90;99.90;;;;;;4875117;29;20427;-94
2023/04/07 19:04:23;;;;;;;13.48;12.15;;;8.90;99.90;;;;;;4876904;29;20427;-93
2023/04/07 19:06:53;;;;;;;14.13;12.63;;;8.60;99.90;;;;;;4879584;29;20426;-95
2023/04/07 19:09:24;;;;;;;13.02;11.73;;;8.70;99.90;;;;;;4862934;29;20431;-94
2023/04/07 19:11:52;;;;;;;13.00;11.80;;;8.50;99.90;;;;;;4876550;29;20597;-94
2023/04/07 19:14:18;;;;;;;13.35;12.05;;;8.60;99.90;;;;;;4864359;29;20438;-94
2023/04/07 19:16:50;;;;;;;13.32;12.02;;;8.50;99.90;;;;;;4880935;29;20427;-95
2023/04/07 19:19:16;;;;;;;12.80;11.48;;;8.20;99.90;;;;;;4878846;29;20423;-93
2023/04/07 19:21:42;;;;;;;13.13;11.82;;;8.30;99.90;;;;;;4876029;29;20422;-93
2023/04/07 19:24:11;;;;;;;12.82;11.52;;;8.20;99.90;;;;;;4879415;29;20433;-94
2023/04/07 19:26:37;;;;;;;12.27;11.18;;;8.10;99.90;;;;;;4879062;29;20492;-92
2023/04/07 19:29:05;;;;;;;12.23;11.13;;;8.50;99.90;;;;;;4877368;29;20422;-96
2023/04/07 19:31:31;;;;;;;12.13;10.88;;;8.00;99.90;;;;;;4878908;29;20982;-93
2023/04/07 19:33:57;;;;;;;12.10;11.00;;;8.50;99.90;;;;;;4878053;29;20425;-94
2023/04/07 19:36:25;;;;;;;11.70;10.60;;;7.80;99.90;;;;;;4879921;29;20835;-92
2023/04/07 19:38:53;;;;;;;12.10;10.90;;;7.70;99.90;;;;;;4878775;29;20867;-95
2023/04/07 19:41:19;;;;;;;12.63;11.40;;;7.90;99.90;;;;;;4879236;29;20421;-94
2023/04/07 19:43:48;;;;;;;11.77;10.68;;;7.70;99.90;;;;;;4880793;29;20930;-93
2023/04/07 19:46:17;;;;;;;10.73;9.73;;;7.60;99.90;;;;;;4882278;29;20474;-94
2023/04/07 19:48:43;;;;;;;11.65;10.55;;;7.50;99.90;;;;;;4878614;29;20414;-93
2023/04/07 19:51:08;;;;;;;11.65;10.45;;;7.90;99.90;;;;;;4877820;29;20445;-95
2023/04/07 19:53:34;;;;;;;12.32;11.13;;;7.40;99.90;;;;;;4879454;29;20919;-93
2023/04/07 19:56:03;;;;;;;13.07;11.77;;;7.40;99.90;;;;;;4869916;29;20532;-93
2023/04/07 19:58:29;;;;;;;12.73;11.43;;;7.40;99.90;;;;;;4859575;29;20523;-94
2023/04/07 20:00:58;;;;;;;12.33;11.13;;;7.10;99.90;;;;;;4859466;29;20529;-94
2023/04/07 20:03:26;;;;;;;11.20;10.10;;;7.20;99.90;;;;;;4859478;29;20434;-94
2023/04/07 20:05:52;;;;;;;10.47;9.43;;;7.10;99.90;;;;;;4860224;29;20426;-95
2023/04/07 20:08:17;;;;;;;11.25;10.05;;;7.00;99.90;;;;;;4858698;29;20502;-93
2023/04/07 20:10:43;;;;;;;10.80;9.70;;;6.90;99.90;;;;;;4858859;29;20455;-94
2023/04/07 20:13:09;;;;;;;10.73;9.70;;;7.20;99.90;;;;;;4858904;29;20427;-93
2023/04/07 20:15:39;;;;;;;10.63;9.57;;;7.00;99.90;;;;;;4861135;29;21034;-93
2023/04/07 20:18:04;;;;;;;11.00;9.88;;;6.80;99.90;;;;;;4859198;29;20450;-94
2023/04/07 20:20:30;;;;;;;10.37;9.33;;;6.80;99.90;;;;;;4861959;29;20419;-94
2023/04/07 20:23:01;;;;;;;10.57;9.57;;;6.60;99.90;;;;;;4865004;29;20430;-94
2023/04/07 20:25:27;;;;;;;10.50;9.40;;;6.70;99.90;;;;;;4863458;29;20450;-96
2023/04/07 20:27:52;;;;;;;10.60;9.60;;;6.40;99.90;;;;;;4862518;29;20520;-94
2023/04/07 20:30:18;;;;;;;10.18;9.18;;;6.50;99.90;;;;;;4862076;29;20970;-93
2023/04/07 20:32:45;;;;;;;10.25;9.25;;;7.30;99.90;;;;;;4863264;29;21025;-94
2023/04/07 20:35:25;;;;;;;9.75;8.80;;;6.30;99.90;;;;;;4864609;29;20427;-95
2023/04/07 20:37:51;;;;;;;10.35;9.32;;;6.90;99.90;;;;;;4862854;29;20423;-94
2023/04/07 20:40:16;;;;;;;9.73;8.75;;;6.30;99.90;;;;;;4864304;29;20425;-94
2023/04/07 20:42:42;;;;;;;9.70;8.63;;;6.50;99.90;;;;;;4862803;29;20762;-94
2023/04/07 20:45:08;;;;;;;9.75;8.75;;;6.00;99.90;;;;;;4862470;29;20537;-93
2023/04/07 20:47:35;;;;;;;9.57;8.57;;;6.00;99.90;;;;;;4862999;29;20788;-92
2023/04/07 20:50:01;;;;;;;9.80;8.80;;;6.40;99.90;;;;;;4861865;29;20534;-94
2023/04/07 20:52:26;;;;;;;8.70;7.82;;;5.90;99.90;;;;;;4861799;29;20487;-93
2023/04/07 20:54:57;;;;;;;9.93;8.30;;;5.80;99.90;;;;;;4863179;29;20427;-94
2023/04/07 20:57:25;;;;;;;9.30;8.30;;;5.80;99.90;;;;;;4862298;29;20932;-95
2023/04/07 20:59:51;;;;;;;8.68;7.88;;;5.80;99.90;;;;;;4863187;29;20458;-93
2023/04/07 21:02:16;;;;;;;9.03;7.93;;;5.60;99.90;;;;;;4865069;29;20431;-95
2023/04/07 21:04:45;;;;;;;8.27;7.47;;;5.80;99.90;;;;;;4864321;29;20430;-94
2023/04/07 21:07:12;;;;;;;8.97;8.10;;;5.80;99.90;;;;;;4866469;29;20395;-96
2023/04/07 21:09:38;;;;;;;8.30;7.50;;;5.60;99.90;;;;;;4864423;29;20900;-95
2023/04/07 21:12:04;;;;;;;7.83;7.03;;;5.50;99.90;;;;;;4862408;29;20430;-95
2023/04/07 21:14:36;;;;;;;8.17;7.37;;;5.50;99.90;;;;;;4861538;29;20971;-95
2023/04/07 21:17:02;;;;;;;8.73;7.20;;;5.40;99.90;;;;;;4861835;29;20426;-93
2023/04/07 21:19:27;;;;;;;8.18;7.32;;;5.50;99.90;;;;;;4862379;29;20414;-94
2023/04/07 21:21:56;;;;;;;8.68;7.70;;;5.50;99.90;;;;;;4862771;29;20453;-95
2023/04/07 21:24:22;;;;;;;8.13;7.28;;;5.40;99.90;;;;;;4861053;29;20415;-95
2023/04/07 21:26:48;;;;;;;9.48;7.15;;;5.40;99.90;;;;;;4861669;29;20970;-95
2023/04/07 21:29:14;;;;;;;7.68;6.97;;;5.20;99.90;;;;;;4861183;29;20411;-94
2023/04/07 21:31:40;;;;;;;8.20;7.40;;;5.20;99.90;;;;;;4860217;29;20442;-96
2023/04/07 21:34:15;;;;;;;7.88;7.18;;;5.20;99.90;;;;;;4865699;29;20431;-92
2023/04/07 21:36:41;;;;;;;8.50;6.90;;;5.20;99.90;;;;;;4861220;29;20418;-94
2023/04/07 21:39:09;;;;;;;7.75;6.75;;;5.00;99.90;;;;;;4861501;29;20431;-96
2023/04/07 21:41:36;;;;;;;7.80;7.00;;;4.80;99.90;;;;;;4861525;29;21057;-91
2023/04/07 21:44:01;;;;;;;7.30;6.60;;;5.00;99.90;;;;;;4860841;29;20482;-94
2023/04/07 21:46:29;;;;;;;6.93;6.23;;;4.80;99.90;;;;;;4861166;29;20415;-95
2023/04/07 21:48:55;;;;;;;7.30;6.60;;;4.80;99.90;;;;;;4860661;29;20419;-93
2023/04/07 21:51:21;;;;;;;7.23;6.53;;;4.90;99.90;;;;;;4860984;29;21063;-95
2023/04/07 21:53:47;;;;;;;8.23;6.17;;;4.80;99.90;;;;;;4861309;29;20454;-94
2023/04/07 21:56:12;;;;;;;6.77;5.97;;;4.80;99.90;;;;;;4861385;29;20522;-95
2023/04/07 21:58:40;;;;;;;6.40;5.72;;;4.70;99.90;;;;;;4861007;29;20415;-94
2023/04/07 22:01:06;;;;;;;7.18;5.97;;;4.60;99.90;;;;;;4866096;29;20494;-95
2023/04/07 22:03:32;;;;;;;6.47;5.88;;;4.70;99.90;;;;;;4863568;29;20474;-93
2023/04/07 22:05:58;;;;;;;7.17;5.90;;;4.50;99.90;;;;;;4861355;29;20475;-94
2023/04/07 22:08:26;;;;;;;7.15;5.63;;;4.70;99.90;;;;;;4860062;29;20974;-94
2023/04/07 22:10:51;;;;;;;6.23;5.63;;;4.80;99.90;;;;;;4860888;29;20446;-95
2023/04/07 22:13:17;;;;;;;6.00;5.40;;;4.90;99.90;;;;;;4860862;29;20438;-95
2023/04/07 22:15:43;;;;;;;6.03;5.43;;;4.50;99.90;;;;;;4860640;29;20918;-93
2023/04/07 22:18:09;;;;;;;5.80;5.20;;;4.50;99.90;;;;;;4859976;29;20912;-93
2023/04/07 22:20:35;;;;;;;6.20;5.13;;;4.30;99.90;;;;;;4860320;29;20423;-93
2023/04/07 22:23:01;;;;;;;5.87;5.20;;;4.20;99.90;;;;;;4860325;29;20415;-94
2023/04/07 22:25:32;;;;;;;6.13;5.50;;;4.40;99.90;;;;;;4859789;29;20426;-94
2023/04/07 22:27:58;;;;;;;6.53;5.60;;;4.30;99.90;;;;;;4860687;29;20750;-92
2023/04/07 22:30:26;;;;;;;6.30;5.38;;;4.20;99.90;;;;;;4859789;29;20578;-93
2023/04/07 22:32:52;;;;;;;5.82;4.95;;;4.20;99.90;;;;;;4860353;29;20482;-95
2023/04/07 22:35:21;;;;;;;7.50;6.47;;;4.10;99.90;;;;;;4859978;29;20522;-94
2023/04/07 22:37:47;;;;;;;9.35;8.45;;;4.10;99.90;;;;;;4860046;29;20457;-94
2023/04/07 22:40:12;;;;;;;10.55;9.45;;;4.20;99.90;;;;;;4862054;29;20419;-94
2023/04/07 22:42:48;;;;;;;11.27;9.90;;;4.20;99.90;;;;;;4859711;29;20430;-95
2023/04/07 22:45:14;;;;;;;8.88;7.90;;;4.00;99.90;;;;;;4860985;29;20454;-94
2023/04/07 22:47:39;;;;;;;6.72;6.03;;;3.70;99.90;;;;;;4860282;29;20419;-94
2023/04/07 22:50:06;;;;;;;5.95;5.32;;;3.90;99.90;;;;;;4860691;29;20470;-93
2023/04/07 22:52:32;;;;;;;5.50;5.00;;;3.90;99.90;;;;;;4860911;29;20951;-94
2023/04/07 22:54:58;;;;;;;5.82;4.60;;;4.00;99.90;;;;;;4860331;29;20431;-95